sensor_id;sensor_type;location;lat;lon;timestamp;temperature;humidity
5901;DHT22;2976;49.764;9.796;2023-09-07T00:01:06;15.30;90.10
5901;DHT22;2976;49.764;9.796;2023-09-07T00:03:32;15.20;87.40
5901;DHT22;2976;49.764;9.796;2023-09-07T00:05:58;15.10;99.90
5901;DHT22;2976;49.764;9.796;2023-09-07T00:08:23;15.00;99.90
5901;DHT22;2976;49.764;9.796;2023-09-07T00:10:51;14.90;99.90
5901;DHT22;2976;49.764;9.796;2023-09-07T00:13:16;14.80;99.90
5901;DHT22;2976;49.764;9.796;2023-09-07T00:15:42;14.80;99.90
5901;DHT22;2976;49.764;9.796;2023-09-07T00:18:08;14.80;99.90
5901;DHT22;2976;49.764;9.796;2023-09-07T00:20:34;14.80;99.90
5901;DHT22;2976;49.764;9.796;2023-09-07T00:23:00;14.90;99.90
5901;DHT22;2976;49.764;9.796;2023-09-07T00:25:26;15.00;99.90
5901;DHT22;2976;49.764;9.796;2023-09-07T00:27:52;15.10;99.90
5901;DHT22;2976;49.764;9.796;2023-09-07T00:30:17;15.10;99.90
5901;DHT22;2976;49.764;9.796;2023-09-07T00:32:43;15.30;99.90
5901;DHT22;2976;49.764;9.796;2023-09-07T00:35:09;15.30;99.90
5901;DHT22;2976;49.764;9.796;2023-09-07T00:37:34;15.30;99.90
5901;DHT22;2976;49.764;9.796;2023-09-07T00:40:00;15.30;99.90
5901;DHT22;2976;49.764;9.796;2023-09-07T00:42:26;15.40;99.90
5901;DHT22;2976;49.764;9.796;2023-09-07T00:44:51;15.40;99.90
5901;DHT22;2976;49.764;9.796;2023-09-07T00:47:17;15.20;86.60
5901;DHT22;2976;49.764;9.796;2023-09-07T00:49:43;15.10;92.80
5901;DHT22;2976;49.764;9.796;2023-09-07T00:52:09;14.90;99.90
5901;DHT22;2976;49.764;9.796;2023-09-07T00:54:36;14.80;99.90
5901;DHT22;2976;49.764;9.796;2023-09-07T00:57:04;14.70;99.90
5901;DHT22;2976;49.764;9.796;2023-09-07T00:59:31;14.60;99.90
5901;DHT22;2976;49.764;9.796;2023-09-07T01:01:57;14.50;99.90
5901;DHT22;2976;49.764;9.796;2023-09-07T01:04:23;14.50;99.90
5901;DHT22;2976;49.764;9.796;2023-09-07T01:06:56;14.50;99.90
5901;DHT22;2976;49.764;9.796;2023-09-07T01:09:24;14.50;99.90
5901;DHT22;2976;49.764;9.796;2023-09-07T01:11:52;14.50;99.90
5901;DHT22;2976;49.764;9.796;2023-09-07T01:14:18;14.60;99.90
5901;DHT22;2976;49.764;9.796;2023-09-07T01:16:44;14.60;99.90
5901;DHT22;2976;49.764;9.796;2023-09-07T01:19:10;14.60;99.90
5901;DHT22;2976;49.764;9.796;2023-09-07T01:21:37;14.60;99.90
5901;DHT22;2976;49.764;9.796;2023-09-07T01:24:05;14.60;99.90
5901;DHT22;2976;49.764;9.796;2023-09-07T01:26:31;14.60;99.90
5901;DHT22;2976;49.764;9.796;2023-09-07T01:28:57;14.70;99.90
5901;DHT22;2976;49.764;9.796;2023-09-07T01:31:23;14.60;99.90
5901;DHT22;2976;49.764;9.796;2023-09-07T01:33:48;14.60;99.90
5901;DHT22;2976;49.764;9.796;2023-09-07T01:36:14;14.60;99.90
5901;DHT22;2976;49.764;9.796;2023-09-07T01:38:39;14.70;99.90
5901;DHT22;2976;49.764;9.796;2023-09-07T01:41:05;14.70;99.90
5901;DHT22;2976;49.764;9.796;2023-09-07T01:43:30;14.60;99.90
5901;DHT22;2976;49.764;9.796;2023-09-07T01:45:56;14.60;99.90
5901;DHT22;2976;49.764;9.796;2023-09-07T01:48:21;14.60;99.90
5901;DHT22;2976;49.764;9.796;2023-09-07T01:50:47;14.60;99.90
5901;DHT22;2976;49.764;9.796;2023-09-07T01:53:12;14.60;99.90
5901;DHT22;2976;49.764;9.796;2023-09-07T01:55:38;14.60;99.90
5901;DHT22;2976;49.764;9.796;2023-09-07T01:58:03;14.50;99.90
5901;DHT22;2976;49.764;9.796;2023-09-07T02:00:29;14.50;99.90
5901;DHT22;2976;49.764;9.796;2023-09-07T02:02:55;14.40;99.90
5901;DHT22;2976;49.764;9.796;2023-09-07T02:05:20;14.40;99.90
5901;DHT22;2976;49.764;9.796;2023-09-07T02:07:46;14.30;99.90
5901;DHT22;2976;49.764;9.796;2023-09-07T02:10:15;14.30;99.90
5901;DHT22;2976;49.764;9.796;2023-09-07T02:12:40;14.30;99.90
5901;DHT22;2976;49.764;9.796;2023-09-07T02:15:06;14.40;99.90
5901;DHT22;2976;49.764;9.796;2023-09-07T02:17:32;14.40;99.90
5901;DHT22;2976;49.764;9.796;2023-09-07T02:19:58;14.50;99.90
5901;DHT22;2976;49.764;9.796;2023-09-07T02:22:24;14.40;99.90
5901;DHT22;2976;49.764;9.796;2023-09-07T02:24:49;14.30;99.90
5901;DHT22;2976;49.764;9.796;2023-09-07T02:27:15;14.20;99.90
5901;DHT22;2976;49.764;9.796;2023-09-07T02:29:40;14.10;99.90
5901;DHT22;2976;49.764;9.796;2023-09-07T02:32:06;14.00;99.90
5901;DHT22;2976;49.764;9.796;2023-09-07T02:34:32;13.90;99.90
5901;DHT22;2976;49.764;9.796;2023-09-07T02:37:02;13.90;99.90
5901;DHT22;2976;49.764;9.796;2023-09-07T02:39:28;13.80;99.90
5901;DHT22;2976;49.764;9.796;2023-09-07T02:41:53;13.80;99.90
5901;DHT22;2976;49.764;9.796;2023-09-07T02:44:19;13.70;99.90
5901;DHT22;2976;49.764;9.796;2023-09-07T02:46:45;13.70;99.90
5901;DHT22;2976;49.764;9.796;2023-09-07T02:49:11;13.70;99.90
5901;DHT22;2976;49.764;9.796;2023-09-07T02:51:36;13.60;99.90
5901;DHT22;2976;49.764;9.796;2023-09-07T02:54:02;13.50;99.90
5901;DHT22;2976;49.764;9.796;2023-09-07T02:56:28;13.40;99.90
5901;DHT22;2976;49.764;9.796;2023-09-07T02:58:54;13.40;99.90
5901;DHT22;2976;49.764;9.796;2023-09-07T03:01:19;13.30;99.90
5901;DHT22;2976;49.764;9.796;2023-09-07T03:03:46;13.30;99.90
5901;DHT22;2976;49.764;9.796;2023-09-07T03:06:13;13.30;99.90
5901;DHT22;2976;49.764;9.796;2023-09-07T03:08:42;13.20;99.90
5901;DHT22;2976;49.764;9.796;2023-09-07T03:11:09;13.30;99.90
5901;DHT22;2976;49.764;9.796;2023-09-07T03:13:35;13.30;99.90
5901;DHT22;2976;49.764;9.796;2023-09-07T03:16:01;13.20;99.90
5901;DHT22;2976;49.764;9.796;2023-09-07T03:18:27;13.10;99.90
5901;DHT22;2976;49.764;9.796;2023-09-07T03:20:54;13.00;99.90
5901;DHT22;2976;49.764;9.796;2023-09-07T03:23:21;12.90;99.90
5901;DHT22;2976;49.764;9.796;2023-09-07T03:25:47;12.80;99.90
5901;DHT22;2976;49.764;9.796;2023-09-07T03:28:13;12.80;99.90
5901;DHT22;2976;49.764;9.796;2023-09-07T03:30:38;12.70;99.90
5901;DHT22;2976;49.764;9.796;2023-09-07T03:33:04;12.70;99.90
5901;DHT22;2976;49.764;9.796;2023-09-07T03:35:31;12.60;99.90
5901;DHT22;2976;49.764;9.796;2023-09-07T03:37:56;12.60;99.90
5901;DHT22;2976;49.764;9.796;2023-09-07T03:40:22;12.50;99.90
5901;DHT22;2976;49.764;9.796;2023-09-07T03:42:48;12.40;99.90
5901;DHT22;2976;49.764;9.796;2023-09-07T03:45:14;12.40;99.90
5901;DHT22;2976;49.764;9.796;2023-09-07T03:47:39;12.40;99.90
5901;DHT22;2976;49.764;9.796;2023-09-07T03:50:05;12.40;99.90
5901;DHT22;2976;49.764;9.796;2023-09-07T03:52:31;12.40;99.90
5901;DHT22;2976;49.764;9.796;2023-09-07T03:54:57;12.30;99.90
5901;DHT22;2976;49.764;9.796;2023-09-07T03:57:23;12.30;99.90
5901;DHT22;2976;49.764;9.796;2023-09-07T03:59:49;12.30;99.90
5901;DHT22;2976;49.764;9.796;2023-09-07T04:02:15;12.30;99.90
5901;DHT22;2976;49.764;9.796;2023-09-07T04:04:41;12.40;99.90
5901;DHT22;2976;49.764;9.796;2023-09-07T04:07:07;12.40;99.90
5901;DHT22;2976;49.764;9.796;2023-09-07T04:09:33;12.40;99.90
5901;DHT22;2976;49.764;9.796;2023-09-07T04:11:58;12.40;99.90
5901;DHT22;2976;49.764;9.796;2023-09-07T04:14:24;12.40;99.90
5901;DHT22;2976;49.764;9.796;2023-09-07T04:16:49;12.40;99.90
5901;DHT22;2976;49.764;9.796;2023-09-07T04:19:16;12.40;99.90
5901;DHT22;2976;49.764;9.796;2023-09-07T04:21:41;12.40;99.90
5901;DHT22;2976;49.764;9.796;2023-09-07T04:24:07;12.40;99.90
5901;DHT22;2976;49.764;9.796;2023-09-07T04:26:33;12.50;99.90
5901;DHT22;2976;49.764;9.796;2023-09-07T04:28:59;12.50;99.90
5901;DHT22;2976;49.764;9.796;2023-09-07T04:31:24;12.60;99.90
5901;DHT22;2976;49.764;9.796;2023-09-07T04:33:53;12.60;99.90
5901;DHT22;2976;49.764;9.796;2023-09-07T04:36:19;12.60;99.90
5901;DHT22;2976;49.764;9.796;2023-09-07T04:38:44;12.60;99.90
5901;DHT22;2976;49.764;9.796;2023-09-07T04:41:12;12.60;99.90
5901;DHT22;2976;49.764;9.796;2023-09-07T04:43:39;12.40;99.90
5901;DHT22;2976;49.764;9.796;2023-09-07T04:46:13;12.40;99.90
5901;DHT22;2976;49.764;9.796;2023-09-07T04:48:40;12.40;99.90
5901;DHT22;2976;49.764;9.796;2023-09-07T04:51:09;12.40;99.90
5901;DHT22;2976;49.764;9.796;2023-09-07T04:53:36;12.30;99.90
5901;DHT22;2976;49.764;9.796;2023-09-07T04:56:03;12.30;99.90
5901;DHT22;2976;49.764;9.796;2023-09-07T04:58:29;12.20;99.90
5901;DHT22;2976;49.764;9.796;2023-09-07T05:01:04;12.20;99.90
5901;DHT22;2976;49.764;9.796;2023-09-07T05:03:30;12.10;99.90
5901;DHT22;2976;49.764;9.796;2023-09-07T05:05:56;12.10;99.90
5901;DHT22;2976;49.764;9.796;2023-09-07T05:08:22;12.10;99.90
5901;DHT22;2976;49.764;9.796;2023-09-07T05:11:03;12.10;99.90
5901;DHT22;2976;49.764;9.796;2023-09-07T05:13:29;12.10;99.90
5901;DHT22;2976;49.764;9.796;2023-09-07T05:15:55;12.10;99.90
5901;DHT22;2976;49.764;9.796;2023-09-07T05:18:22;12.10;99.90
5901;DHT22;2976;49.764;9.796;2023-09-07T05:20:48;12.10;99.90
5901;DHT22;2976;49.764;9.796;2023-09-07T05:23:16;12.10;99.90
5901;DHT22;2976;49.764;9.796;2023-09-07T05:25:48;12.10;99.90
5901;DHT22;2976;49.764;9.796;2023-09-07T05:28:14;12.30;99.90
5901;DHT22;2976;49.764;9.796;2023-09-07T05:30:43;12.40;99.90
5901;DHT22;2976;49.764;9.796;2023-09-07T05:33:09;12.50;99.90
5901;DHT22;2976;49.764;9.796;2023-09-07T05:35:35;12.60;99.90
5901;DHT22;2976;49.764;9.796;2023-09-07T05:38:02;12.60;99.90
5901;DHT22;2976;49.764;9.796;2023-09-07T05:40:28;12.70;99.90
5901;DHT22;2976;49.764;9.796;2023-09-07T05:42:53;12.70;99.90
5901;DHT22;2976;49.764;9.796;2023-09-07T05:45:19;12.70;99.90
5901;DHT22;2976;49.764;9.796;2023-09-07T05:47:44;12.80;99.90
5901;DHT22;2976;49.764;9.796;2023-09-07T05:50:10;12.80;99.90
5901;DHT22;2976;49.764;9.796;2023-09-07T05:52:35;12.80;99.90
5901;DHT22;2976;49.764;9.796;2023-09-07T05:55:01;12.80;99.90
5901;DHT22;2976;49.764;9.796;2023-09-07T05:57:27;12.90;99.90
5901;DHT22;2976;49.764;9.796;2023-09-07T05:59:53;13.00;99.90
5901;DHT22;2976;49.764;9.796;2023-09-07T06:02:18;13.20;99.90
5901;DHT22;2976;49.764;9.796;2023-09-07T06:04:44;13.90;99.90
5901;DHT22;2976;49.764;9.796;2023-09-07T06:07:10;14.60;99.90
5901;DHT22;2976;49.764;9.796;2023-09-07T06:09:35;15.50;99.90
5901;DHT22;2976;49.764;9.796;2023-09-07T06:12:02;16.20;99.90
5901;DHT22;2976;49.764;9.796;2023-09-07T06:14:28;17.30;99.90
5901;DHT22;2976;49.764;9.796;2023-09-07T06:16:54;18.00;99.90
5901;DHT22;2976;49.764;9.796;2023-09-07T06:19:19;18.70;99.90
5901;DHT22;2976;49.764;9.796;2023-09-07T06:21:45;19.10;11.70
5901;DHT22;2976;49.764;9.796;2023-09-07T06:24:11;18.90;25.30
5901;DHT22;2976;49.764;9.796;2023-09-07T06:26:36;18.80;51.40
5901;DHT22;2976;49.764;9.796;2023-09-07T06:29:02;19.60;7.30
5901;DHT22;2976;49.764;9.796;2023-09-07T06:31:27;20.00;1.00
5901;DHT22;2976;49.764;9.796;2023-09-07T06:33:54;20.00;1.00
5901;DHT22;2976;49.764;9.796;2023-09-07T06:36:19;20.50;1.00
5901;DHT22;2976;49.764;9.796;2023-09-07T06:38:45;20.30;1.00
5901;DHT22;2976;49.764;9.796;2023-09-07T06:41:11;20.30;1.00
5901;DHT22;2976;49.764;9.796;2023-09-07T06:43:37;20.40;1.00
5901;DHT22;2976;49.764;9.796;2023-09-07T06:46:07;20.50;1.00
5901;DHT22;2976;49.764;9.796;2023-09-07T06:48:33;20.60;99.90
5901;DHT22;2976;49.764;9.796;2023-09-07T06:51:03;20.50;1.00
5901;DHT22;2976;49.764;9.796;2023-09-07T06:53:29;20.70;99.90
5901;DHT22;2976;49.764;9.796;2023-09-07T06:55:59;20.60;99.90
5901;DHT22;2976;49.764;9.796;2023-09-07T06:58:25;21.00;99.90
5901;DHT22;2976;49.764;9.796;2023-09-07T07:00:50;21.50;99.90
5901;DHT22;2976;49.764;9.796;2023-09-07T07:03:16;21.60;1.00
5901;DHT22;2976;49.764;9.796;2023-09-07T07:05:41;21.30;99.90
5901;DHT22;2976;49.764;9.796;2023-09-07T07:08:08;21.10;1.00
5901;DHT22;2976;49.764;9.796;2023-09-07T07:10:34;21.00;1.00
5901;DHT22;2976;49.764;9.796;2023-09-07T07:13:00;21.00;99.90
5901;DHT22;2976;49.764;9.796;2023-09-07T07:15:25;21.20;99.90
5901;DHT22;2976;49.764;9.796;2023-09-07T07:17:51;21.20;1.00
5901;DHT22;2976;49.764;9.796;2023-09-07T07:20:16;21.30;13.70
5901;DHT22;2976;49.764;9.796;2023-09-07T07:22:42;21.20;1.00
5901;DHT22;2976;49.764;9.796;2023-09-07T07:25:08;21.10;2.80
5901;DHT22;2976;49.764;9.796;2023-09-07T07:27:33;21.40;95.10
5901;DHT22;2976;49.764;9.796;2023-09-07T07:29:59;21.70;1.00
5901;DHT22;2976;49.764;9.796;2023-09-07T07:32:25;21.60;1.00
5901;DHT22;2976;49.764;9.796;2023-09-07T07:34:50;21.50;1.00
5901;DHT22;2976;49.764;9.796;2023-09-07T07:37:16;21.40;99.90
5901;DHT22;2976;49.764;9.796;2023-09-07T07:39:41;21.50;99.90
5901;DHT22;2976;49.764;9.796;2023-09-07T07:42:07;21.50;99.90
5901;DHT22;2976;49.764;9.796;2023-09-07T07:44:33;22.00;99.90
5901;DHT22;2976;49.764;9.796;2023-09-07T07:46:58;21.80;1.00
5901;DHT22;2976;49.764;9.796;2023-09-07T07:49:24;21.90;99.90
5901;DHT22;2976;49.764;9.796;2023-09-07T07:51:50;22.30;99.90
5901;DHT22;2976;49.764;9.796;2023-09-07T07:54:16;22.60;99.90
5901;DHT22;2976;49.764;9.796;2023-09-07T07:56:42;23.10;48.10
5901;DHT22;2976;49.764;9.796;2023-09-07T07:59:08;23.50;1.00
5901;DHT22;2976;49.764;9.796;2023-09-07T08:01:33;23.50;1.00
5901;DHT22;2976;49.764;9.796;2023-09-07T08:03:59;23.80;99.90
5901;DHT22;2976;49.764;9.796;2023-09-07T08:06:25;23.80;99.90
5901;DHT22;2976;49.764;9.796;2023-09-07T08:08:51;23.90;99.90
5901;DHT22;2976;49.764;9.796;2023-09-07T08:11:17;24.10;99.90
5901;DHT22;2976;49.764;9.796;2023-09-07T08:13:46;24.10;99.90
5901;DHT22;2976;49.764;9.796;2023-09-07T08:16:12;23.70;99.90
5901;DHT22;2976;49.764;9.796;2023-09-07T08:18:38;23.90;99.90
5901;DHT22;2976;49.764;9.796;2023-09-07T08:21:05;24.00;99.90
5901;DHT22;2976;49.764;9.796;2023-09-07T08:23:30;24.20;99.90
5901;DHT22;2976;49.764;9.796;2023-09-07T08:25:56;24.20;99.90
5901;DHT22;2976;49.764;9.796;2023-09-07T08:28:22;24.20;99.90
5901;DHT22;2976;49.764;9.796;2023-09-07T08:30:51;24.40;99.90
5901;DHT22;2976;49.764;9.796;2023-09-07T08:33:21;24.60;99.90
5901;DHT22;2976;49.764;9.796;2023-09-07T08:35:54;24.80;99.90
5901;DHT22;2976;49.764;9.796;2023-09-07T08:38:21;25.30;99.90
5901;DHT22;2976;49.764;9.796;2023-09-07T08:40:50;25.10;99.90
5901;DHT22;2976;49.764;9.796;2023-09-07T08:43:16;24.90;99.90
5901;DHT22;2976;49.764;9.796;2023-09-07T08:45:50;24.80;99.90
5901;DHT22;2976;49.764;9.796;2023-09-07T08:48:18;24.80;99.90
5901;DHT22;2976;49.764;9.796;2023-09-07T08:50:46;24.70;99.90
5901;DHT22;2976;49.764;9.796;2023-09-07T08:53:19;24.70;99.90
5901;DHT22;2976;49.764;9.796;2023-09-07T08:55:45;24.80;99.90
5901;DHT22;2976;49.764;9.796;2023-09-07T08:58:11;24.70;99.90
5901;DHT22;2976;49.764;9.796;2023-09-07T09:00:37;25.00;99.90
5901;DHT22;2976;49.764;9.796;2023-09-07T09:03:03;25.40;99.90
5901;DHT22;2976;49.764;9.796;2023-09-07T09:05:30;25.50;99.90
5901;DHT22;2976;49.764;9.796;2023-09-07T09:08:05;25.60;99.90
5901;DHT22;2976;49.764;9.796;2023-09-07T09:10:31;25.70;99.90
5901;DHT22;2976;49.764;9.796;2023-09-07T09:12:57;26.00;99.90
5901;DHT22;2976;49.764;9.796;2023-09-07T09:15:25;26.30;99.80
5901;DHT22;2976;49.764;9.796;2023-09-07T09:17:52;26.50;77.30
5901;DHT22;2976;49.764;9.796;2023-09-07T09:20:25;26.40;61.50
5901;DHT22;2976;49.764;9.796;2023-09-07T09:22:55;26.20;66.10
5901;DHT22;2976;49.764;9.796;2023-09-07T09:25:22;26.00;71.40
5901;DHT22;2976;49.764;9.796;2023-09-07T09:27:47;25.90;89.10
5901;DHT22;2976;49.764;9.796;2023-09-07T09:30:14;26.20;65.10
5901;DHT22;2976;49.764;9.796;2023-09-07T09:32:44;26.30;61.80
5901;DHT22;2976;49.764;9.796;2023-09-07T09:35:10;26.60;51.60
5901;DHT22;2976;49.764;9.796;2023-09-07T09:37:46;26.70;51.40
5901;DHT22;2976;49.764;9.796;2023-09-07T09:40:13;26.90;33.10
5901;DHT22;2976;49.764;9.796;2023-09-07T09:42:41;27.10;30.90
5901;DHT22;2976;49.764;9.796;2023-09-07T09:45:09;27.10;28.80
5901;DHT22;2976;49.764;9.796;2023-09-07T09:47:38;27.10;27.20
5901;DHT22;2976;49.764;9.796;2023-09-07T09:50:09;27.00;26.00
5901;DHT22;2976;49.764;9.796;2023-09-07T09:52:36;26.80;22.50
5901;DHT22;2976;49.764;9.796;2023-09-07T09:55:04;26.70;22.80
5901;DHT22;2976;49.764;9.796;2023-09-07T09:57:32;26.90;24.40
5901;DHT22;2976;49.764;9.796;2023-09-07T09:59:59;26.90;20.30
5901;DHT22;2976;49.764;9.796;2023-09-07T10:02:25;26.90;22.30
5901;DHT22;2976;49.764;9.796;2023-09-07T10:04:52;27.20;21.10
5901;DHT22;2976;49.764;9.796;2023-09-07T10:07:19;27.40;18.00
5901;DHT22;2976;49.764;9.796;2023-09-07T10:09:44;27.30;15.90
5901;DHT22;2976;49.764;9.796;2023-09-07T10:12:13;27.40;10.20
5901;DHT22;2976;49.764;9.796;2023-09-07T10:14:42;27.20;8.90
5901;DHT22;2976;49.764;9.796;2023-09-07T10:17:10;27.20;5.40
5901;DHT22;2976;49.764;9.796;2023-09-07T10:19:47;27.40;5.10
5901;DHT22;2976;49.764;9.796;2023-09-07T10:22:26;27.80;1.40
5901;DHT22;2976;49.764;9.796;2023-09-07T10:24:58;28.00;1.00
5901;DHT22;2976;49.764;9.796;2023-09-07T10:27:23;27.80;1.00
5901;DHT22;2976;49.764;9.796;2023-09-07T10:29:52;28.10;1.00
5901;DHT22;2976;49.764;9.796;2023-09-07T10:32:18;27.80;1.00
5901;DHT22;2976;49.764;9.796;2023-09-07T10:34:43;28.10;1.00
5901;DHT22;2976;49.764;9.796;2023-09-07T10:37:10;28.10;1.00
5901;DHT22;2976;49.764;9.796;2023-09-07T10:39:43;27.90;1.00
5901;DHT22;2976;49.764;9.796;2023-09-07T10:42:19;27.80;1.00
5901;DHT22;2976;49.764;9.796;2023-09-07T10:44:45;28.00;1.00
5901;DHT22;2976;49.764;9.796;2023-09-07T10:47:10;28.10;1.00
5901;DHT22;2976;49.764;9.796;2023-09-07T10:49:37;28.30;1.00
5901;DHT22;2976;49.764;9.796;2023-09-07T10:52:03;28.40;1.00
5901;DHT22;2976;49.764;9.796;2023-09-07T10:54:29;28.50;1.00
5901;DHT22;2976;49.764;9.796;2023-09-07T10:56:55;28.40;1.00
5901;DHT22;2976;49.764;9.796;2023-09-07T10:59:23;28.50;1.00
5901;DHT22;2976;49.764;9.796;2023-09-07T11:01:48;28.20;1.00
5901;DHT22;2976;49.764;9.796;2023-09-07T11:04:14;28.20;1.00
5901;DHT22;2976;49.764;9.796;2023-09-07T11:06:42;28.30;1.00
5901;DHT22;2976;49.764;9.796;2023-09-07T11:09:09;28.60;1.00
5901;DHT22;2976;49.764;9.796;2023-09-07T11:11:36;28.60;1.00
5901;DHT22;2976;49.764;9.796;2023-09-07T11:14:05;28.60;1.00
5901;DHT22;2976;49.764;9.796;2023-09-07T11:16:32;28.40;1.00
5901;DHT22;2976;49.764;9.796;2023-09-07T11:19:03;28.10;1.00
5901;DHT22;2976;49.764;9.796;2023-09-07T11:21:30;28.10;1.00
5901;DHT22;2976;49.764;9.796;2023-09-07T11:23:57;28.10;1.00
5901;DHT22;2976;49.764;9.796;2023-09-07T11:26:23;28.10;1.00
5901;DHT22;2976;49.764;9.796;2023-09-07T11:28:49;28.30;1.00
5901;DHT22;2976;49.764;9.796;2023-09-07T11:31:18;28.40;1.00
5901;DHT22;2976;49.764;9.796;2023-09-07T11:33:44;28.30;1.00
5901;DHT22;2976;49.764;9.796;2023-09-07T11:36:09;28.40;1.00
5901;DHT22;2976;49.764;9.796;2023-09-07T11:38:36;28.50;1.00
5901;DHT22;2976;49.764;9.796;2023-09-07T11:41:03;28.40;1.00
5901;DHT22;2976;49.764;9.796;2023-09-07T11:43:29;28.40;1.00
5901;DHT22;2976;49.764;9.796;2023-09-07T11:45:54;28.50;1.00
5901;DHT22;2976;49.764;9.796;2023-09-07T11:48:20;28.30;1.00
5901;DHT22;2976;49.764;9.796;2023-09-07T11:50:46;28.20;1.00
5901;DHT22;2976;49.764;9.796;2023-09-07T11:53:11;28.30;1.00
5901;DHT22;2976;49.764;9.796;2023-09-07T11:55:37;28.10;1.00
5901;DHT22;2976;49.764;9.796;2023-09-07T11:58:03;28.20;1.00
5901;DHT22;2976;49.764;9.796;2023-09-07T12:00:32;28.20;1.00
5901;DHT22;2976;49.764;9.796;2023-09-07T12:02:59;28.10;1.00
5901;DHT22;2976;49.764;9.796;2023-09-07T12:05:24;28.10;1.00
5901;DHT22;2976;49.764;9.796;2023-09-07T12:07:50;28.10;1.00
5901;DHT22;2976;49.764;9.796;2023-09-07T12:10:15;28.20;1.00
5901;DHT22;2976;49.764;9.796;2023-09-07T12:12:44;28.40;1.00
5901;DHT22;2976;49.764;9.796;2023-09-07T12:15:10;28.50;1.00
5901;DHT22;2976;49.764;9.796;2023-09-07T12:17:39;28.70;1.00
5901;DHT22;2976;49.764;9.796;2023-09-07T12:20:06;28.90;1.00
5901;DHT22;2976;49.764;9.796;2023-09-07T12:22:35;29.00;1.00
5901;DHT22;2976;49.764;9.796;2023-09-07T12:25:05;29.10;1.00
5901;DHT22;2976;49.764;9.796;2023-09-07T12:27:36;29.00;1.00
5901;DHT22;2976;49.764;9.796;2023-09-07T12:30:02;28.80;1.00
5901;DHT22;2976;49.764;9.796;2023-09-07T12:32:32;28.70;1.00
5901;DHT22;2976;49.764;9.796;2023-09-07T12:34:57;28.60;1.00
5901;DHT22;2976;49.764;9.796;2023-09-07T12:37:23;28.70;1.00
5901;DHT22;2976;49.764;9.796;2023-09-07T12:39:50;28.60;1.00
5901;DHT22;2976;49.764;9.796;2023-09-07T12:42:16;28.80;1.00
5901;DHT22;2976;49.764;9.796;2023-09-07T12:44:43;28.80;1.00
5901;DHT22;2976;49.764;9.796;2023-09-07T12:47:09;28.70;1.00
5901;DHT22;2976;49.764;9.796;2023-09-07T12:49:34;28.60;1.00
5901;DHT22;2976;49.764;9.796;2023-09-07T12:52:00;28.50;1.00
5901;DHT22;2976;49.764;9.796;2023-09-07T12:54:25;28.50;1.00
5901;DHT22;2976;49.764;9.796;2023-09-07T12:56:52;28.60;1.00
5901;DHT22;2976;49.764;9.796;2023-09-07T12:59:18;28.70;1.00
5901;DHT22;2976;49.764;9.796;2023-09-07T13:01:43;28.70;1.00
5901;DHT22;2976;49.764;9.796;2023-09-07T13:04:09;28.70;1.00
5901;DHT22;2976;49.764;9.796;2023-09-07T13:06:36;28.70;1.00
5901;DHT22;2976;49.764;9.796;2023-09-07T13:09:02;28.60;1.00
5901;DHT22;2976;49.764;9.796;2023-09-07T13:11:29;28.60;1.00
5901;DHT22;2976;49.764;9.796;2023-09-07T13:13:55;28.70;1.00
5901;DHT22;2976;49.764;9.796;2023-09-07T13:16:20;28.70;1.00
5901;DHT22;2976;49.764;9.796;2023-09-07T13:18:46;28.80;1.00
5901;DHT22;2976;49.764;9.796;2023-09-07T13:21:12;28.70;1.00
5901;DHT22;2976;49.764;9.796;2023-09-07T13:23:37;28.70;1.00
5901;DHT22;2976;49.764;9.796;2023-09-07T13:26:03;28.60;1.00
5901;DHT22;2976;49.764;9.796;2023-09-07T13:28:28;28.50;1.00
5901;DHT22;2976;49.764;9.796;2023-09-07T13:30:54;28.70;1.00
5901;DHT22;2976;49.764;9.796;2023-09-07T13:33:19;28.70;1.00
5901;DHT22;2976;49.764;9.796;2023-09-07T13:35:45;28.70;1.00
5901;DHT22;2976;49.764;9.796;2023-09-07T13:38:11;28.70;1.00
5901;DHT22;2976;49.764;9.796;2023-09-07T13:40:36;28.80;1.00
5901;DHT22;2976;49.764;9.796;2023-09-07T13:43:02;28.80;1.00
5901;DHT22;2976;49.764;9.796;2023-09-07T13:45:27;28.70;1.00
5901;DHT22;2976;49.764;9.796;2023-09-07T13:47:55;28.70;1.00
5901;DHT22;2976;49.764;9.796;2023-09-07T13:50:20;28.80;1.00
5901;DHT22;2976;49.764;9.796;2023-09-07T13:52:46;28.90;1.00
5901;DHT22;2976;49.764;9.796;2023-09-07T13:55:11;28.70;1.00
5901;DHT22;2976;49.764;9.796;2023-09-07T13:57:37;28.70;1.00
5901;DHT22;2976;49.764;9.796;2023-09-07T14:00:03;28.60;1.00
5901;DHT22;2976;49.764;9.796;2023-09-07T14:02:31;28.70;1.00
5901;DHT22;2976;49.764;9.796;2023-09-07T14:04:58;28.70;1.00
5901;DHT22;2976;49.764;9.796;2023-09-07T14:07:23;28.80;1.00
5901;DHT22;2976;49.764;9.796;2023-09-07T14:09:54;28.80;1.00
5901;DHT22;2976;49.764;9.796;2023-09-07T14:12:19;28.80;1.00
5901;DHT22;2976;49.764;9.796;2023-09-07T14:14:45;28.80;1.00
5901;DHT22;2976;49.764;9.796;2023-09-07T14:17:10;28.70;1.00
5901;DHT22;2976;49.764;9.796;2023-09-07T14:19:36;28.70;1.00
5901;DHT22;2976;49.764;9.796;2023-09-07T14:22:02;28.70;1.00
5901;DHT22;2976;49.764;9.796;2023-09-07T14:24:28;28.70;1.00
5901;DHT22;2976;49.764;9.796;2023-09-07T14:26:53;28.70;1.00
5901;DHT22;2976;49.764;9.796;2023-09-07T14:29:19;28.70;1.00
5901;DHT22;2976;49.764;9.796;2023-09-07T14:31:44;28.70;1.00
5901;DHT22;2976;49.764;9.796;2023-09-07T14:34:11;28.70;1.00
5901;DHT22;2976;49.764;9.796;2023-09-07T14:36:37;28.70;1.00
5901;DHT22;2976;49.764;9.796;2023-09-07T14:39:05;28.80;1.00
5901;DHT22;2976;49.764;9.796;2023-09-07T14:41:32;28.80;1.00
5901;DHT22;2976;49.764;9.796;2023-09-07T14:43:59;28.80;1.00
5901;DHT22;2976;49.764;9.796;2023-09-07T14:46:25;28.80;1.00
5901;DHT22;2976;49.764;9.796;2023-09-07T14:48:51;28.80;1.00
5901;DHT22;2976;49.764;9.796;2023-09-07T14:51:17;28.90;1.00
5901;DHT22;2976;49.764;9.796;2023-09-07T14:53:43;28.80;1.00
5901;DHT22;2976;49.764;9.796;2023-09-07T14:56:09;28.80;1.00
5901;DHT22;2976;49.764;9.796;2023-09-07T14:58:35;28.80;1.00
5901;DHT22;2976;49.764;9.796;2023-09-07T15:01:00;28.70;1.00
5901;DHT22;2976;49.764;9.796;2023-09-07T15:03:26;28.80;1.00
5901;DHT22;2976;49.764;9.796;2023-09-07T15:05:51;28.80;1.00
5901;DHT22;2976;49.764;9.796;2023-09-07T15:08:17;28.80;1.00
5901;DHT22;2976;49.764;9.796;2023-09-07T15:10:43;28.80;1.00
5901;DHT22;2976;49.764;9.796;2023-09-07T15:13:08;28.80;1.00
5901;DHT22;2976;49.764;9.796;2023-09-07T15:15:35;28.70;1.00
5901;DHT22;2976;49.764;9.796;2023-09-07T15:18:08;28.70;1.00
5901;DHT22;2976;49.764;9.796;2023-09-07T15:20:35;28.70;1.00
5901;DHT22;2976;49.764;9.796;2023-09-07T15:23:00;28.70;1.00
5901;DHT22;2976;49.764;9.796;2023-09-07T15:25:26;28.70;1.00
5901;DHT22;2976;49.764;9.796;2023-09-07T15:27:54;28.70;1.00
5901;DHT22;2976;49.764;9.796;2023-09-07T15:30:21;28.70;1.00
5901;DHT22;2976;49.764;9.796;2023-09-07T15:32:47;28.70;1.00
5901;DHT22;2976;49.764;9.796;2023-09-07T15:35:12;28.70;1.00
5901;DHT22;2976;49.764;9.796;2023-09-07T15:37:38;28.70;1.00
5901;DHT22;2976;49.764;9.796;2023-09-07T15:40:06;28.80;1.00
5901;DHT22;2976;49.764;9.796;2023-09-07T15:42:32;28.70;1.00
5901;DHT22;2976;49.764;9.796;2023-09-07T15:44:57;28.70;1.00
5901;DHT22;2976;49.764;9.796;2023-09-07T15:47:23;28.70;1.00
5901;DHT22;2976;49.764;9.796;2023-09-07T15:49:51;28.70;1.00
5901;DHT22;2976;49.764;9.796;2023-09-07T15:52:18;28.70;1.00
5901;DHT22;2976;49.764;9.796;2023-09-07T15:54:44;28.70;1.00
5901;DHT22;2976;49.764;9.796;2023-09-07T15:57:09;28.60;1.00
5901;DHT22;2976;49.764;9.796;2023-09-07T15:59:35;28.60;1.00
5901;DHT22;2976;49.764;9.796;2023-09-07T16:02:01;28.50;1.00
5901;DHT22;2976;49.764;9.796;2023-09-07T16:04:26;28.50;1.00